Time;durP1;ratioP1;P1;durP2;ratioP2;P2;SDS_P1;SDS_P2;PMS_P1;PMS_P2;Temp;Humidity;BMP_temperature;BMP_pressure;BME280_temperature;BME280_humidity;BME280_pressure;Samples;Min_cycle;Max_cycle;Signal;HPM_P1;HPM_P2
2021/08/24 00:01:17;;;;;;;8.07;3.47;;;;;;;13.73;100.00;102648.72;10457578;28;20049;-67
2021/08/24 00:06:19;;;;;;;5.13;2.70;;;;;;;13.84;100.00;102648.25;10457297;28;20052;-66
2021/08/24 00:11:22;;;;;;;6.72;3.40;;;;;;;13.60;100.00;102642.22;10457178;28;20056;-66
2021/08/24 00:16:24;;;;;;;9.80;3.80;;;;;;;13.46;100.00;102653.28;10457082;28;20052;-66
2021/08/24 00:21:27;;;;;;;6.75;2.95;;;;;;;13.99;100.00;102651.16;10455844;28;20056;-66
2021/08/24 00:26:29;;;;;;;8.88;3.40;;;;;;;13.61;100.00;102651.81;10456840;28;20072;-66
2021/08/24 00:31:31;;;;;;;9.27;3.22;;;;;;;13.65;100.00;102653.44;10456738;28;20053;-66
2021/08/24 00:36:34;;;;;;;8.80;3.40;;;;;;;13.52;100.00;102652.22;10457116;28;20045;-66
2021/08/24 00:41:37;;;;;;;10.55;3.83;;;;;;;13.34;100.00;102659.06;10456368;28;20049;-67
2021/08/24 00:46:47;;;;;;;6.35;3.38;;;;;;;13.38;100.00;102648.34;10456432;28;20052;-66
2021/08/24 00:52:02;;;;;;;5.50;3.22;;;;;;;13.13;100.00;102655.44;10455254;28;20059;-66
2021/08/24 00:57:18;;;;;;;7.18;3.53;;;;;;;13.26;100.00;102651.41;10455238;28;20045;-66
2021/08/24 01:02:22;;;;;;;4.47;3.75;;;;;;;13.07;100.00;102655.69;10454788;28;20393;-66
2021/08/24 01:07:36;;;;;;;5.05;3.35;;;;;;;13.18;100.00;102651.72;10462455;28;20045;-66
2021/08/24 01:12:49;;;;;;;6.50;3.80;;;;;;;12.85;100.00;102658.28;10463105;28;20060;-66
2021/08/24 01:18:02;;;;;;;5.78;3.95;;;;;;;13.01;100.00;102662.03;10463477;28;20052;-66
2021/08/24 01:23:26;;;;;;;8.25;3.50;;;;;;;13.15;100.00;102654.47;10462562;28;20060;-66
2021/08/24 01:29:06;;;;;;;5.47;3.90;;;;;;;12.91;100.00;102656.28;10463819;28;20053;-66
2021/08/24 01:34:39;;;;;;;4.05;3.65;;;;;;;13.05;100.00;102662.78;10463740;28;20397;-67
2021/08/24 01:39:48;;;;;;;5.07;3.85;;;;;;;13.02;100.00;102654.06;10462563;28;20052;-67
2021/08/24 01:45:13;;;;;;;8.18;3.75;;;;;;;12.86;100.00;102663.47;10461927;28;20068;-67
2021/08/24 01:50:27;;;;;;;5.85;4.32;;;;;;;12.64;100.00;102656.38;10462423;28;20405;-66
2021/08/24 01:55:32;;;;;;;4.43;4.03;;;;;;;12.66;100.00;102658.97;10461327;28;20053;-66
2021/08/24 02:00:38;;;;;;;7.13;4.60;;;;;;;12.66;100.00;102663.34;10460884;28;20044;-66
2021/08/24 02:05:59;;;;;;;9.77;3.72;;;;;;;12.69;100.00;102663.22;10460929;28;20084;-67
2021/08/24 02:11:03;;;;;;;3.92;3.25;;;;;;;12.66;100.00;102673.84;10460585;28;20064;-67
2021/08/24 02:16:09;;;;;;;11.02;4.38;;;;;;;12.46;100.00;102675.44;10459319;28;20060;-67
2021/08/24 02:21:26;;;;;;;10.85;3.88;;;;;;;12.51;100.00;102676.13;10460147;28;20143;-67
2021/08/24 02:26:31;;;;;;;8.75;4.47;;;;;;;12.49;100.00;102674.47;10461298;28;20048;-67
2021/08/24 02:31:37;;;;;;;8.07;3.25;;;;;;;13.11;100.00;102684.44;10461158;28;20060;-66
2021/08/24 02:36:46;;;;;;;4.70;3.70;;;;;;;12.60;100.00;102673.16;10461153;28;20091;-67
2021/08/24 02:42:19;;;;;;;7.25;4.22;;;;;;;12.51;100.00;102684.03;10459820;28;20076;-68
2021/08/24 02:47:22;;;;;;;5.80;4.18;;;;;;;12.51;100.00;102684.03;10460564;28;20053;-67
2021/08/24 02:52:24;;;;;;;5.95;4.38;;;;;;;12.43;100.00;102683.44;10459264;28;20067;-68
2021/08/24 02:57:27;;;;;;;7.88;4.32;;;;;;;12.21;100.00;102683.31;10458591;28;20041;-68
2021/08/24 03:02:30;;;;;;;8.02;4.13;;;;;;;12.52;100.00;102680.47;10459767;28;20115;-68
2021/08/24 03:07:33;;;;;;;8.60;4.85;;;;;;;12.27;100.00;102685.72;10459392;28;20041;-68
2021/08/24 03:12:50;;;;;;;10.90;5.30;;;;;;;12.30;100.00;102688.25;10458331;28;20060;-68
2021/08/24 03:18:26;;;;;;;6.25;4.20;;;;;;;12.32;100.00;102686.41;10458049;28;20045;-68
2021/08/24 03:23:29;;;;;;;9.38;5.13;;;;;;;12.47;100.00;102698.16;10459172;28;20057;-67
2021/08/24 03:28:32;;;;;;;5.82;4.97;;;;;;;12.42;100.00;102694.84;10458979;28;20056;-68
2021/08/24 03:33:34;;;;;;;9.07;5.50;;;;;;;12.42;100.00;102700.09;10458517;28;20051;-67
2021/08/24 03:38:38;;;;;;;9.30;5.38;;;;;;;12.37;100.00;102689.75;10458008;28;20045;-69
2021/08/24 03:43:40;;;;;;;7.93;4.57;;;;;;;12.47;100.00;102699.94;10458462;28;20052;-68
2021/08/24 03:48:43;;;;;;;10.20;5.68;;;;;;;12.22;100.00;102699.03;10457739;28;20052;-68
2021/08/24 03:53:45;;;;;;;7.68;5.55;;;;;;;12.17;100.00;102698.31;10458340;28;20405;-67
2021/08/24 03:58:47;;;;;;;7.18;4.95;;;;;;;12.27;100.00;102702.34;10457423;28;20045;-67
2021/08/24 04:03:49;;;;;;;12.07;5.70;;;;;;;12.06;100.00;102703.06;10457526;28;20049;-68
2021/08/24 04:08:52;;;;;;;13.80;6.65;;;;;;;12.14;100.00;102693.16;10457455;28;20068;-68
2021/08/24 04:13:54;;;;;;;12.73;7.03;;;;;;;12.11;100.00;102709.03;10457826;28;20053;-68
2021/08/24 04:18:56;;;;;;;11.02;6.80;;;;;;;12.34;100.00;102707.38;10456811;28;20048;-68
2021/08/24 04:23:59;;;;;;;16.05;8.10;;;;;;;12.34;100.00;102704.75;10456848;28;20045;-68
2021/08/24 04:29:02;;;;;;;11.20;6.63;;;;;;;12.56;100.00;102713.63;10456934;28;20053;-68
2021/08/24 04:34:05;;;;;;;14.90;7.30;;;;;;;12.68;100.00;102719.34;10456925;28;20052;-68
2021/08/24 04:39:10;;;;;;;11.80;6.90;;;;;;;12.23;100.00;102724.34;10455813;28;20049;-69
2021/08/24 04:44:13;;;;;;;21.52;7.43;;;;;;;12.38;100.00;102719.50;10456740;28;20041;-68
2021/08/24 04:49:15;;;;;;;13.05;7.43;;;;;;;12.40;100.00;102723.78;10456335;28;20049;-68
2021/08/24 04:54:17;;;;;;;11.73;6.75;;;;;;;12.52;100.00;102726.91;10456121;28;20512;-67
2021/08/24 04:59:20;;;;;;;12.95;9.38;;;;;;;12.32;100.00;102731.06;10455910;28;20500;-69
2021/08/24 05:04:22;;;;;;;13.48;7.53;;;;;;;12.39;100.00;102731.72;10454861;28;20489;-68
2021/08/24 05:09:25;;;;;;;11.43;7.95;;;;;;;12.37;100.00;102742.28;10455698;28;20485;-68
2021/08/24 05:14:27;;;;;;;12.25;9.43;;;;;;;12.29;100.00;102738.19;10455966;28;20056;-68
2021/08/24 05:19:29;;;;;;;18.75;10.20;;;;;;;12.69;100.00;102745.56;10455277;28;20063;-68
2021/08/24 05:24:34;;;;;;;15.10;8.02;;;;;;;12.86;100.00;102750.22;10455683;28;20053;-69
2021/08/24 05:29:36;;;;;;;17.98;10.63;;;;;;;12.63;100.00;102751.88;10454250;28;20061;-69
2021/08/24 05:34:39;;;;;;;15.27;10.73;;;;;;;12.84;100.00;102762.56;10455843;28;20053;-68
2021/08/24 05:39:41;;;;;;;14.48;10.30;;;;;;;13.05;100.00;102760.09;10455206;28;20060;-69
2021/08/24 05:44:44;;;;;;;18.77;11.70;;;;;;;13.01;100.00;102751.44;10455402;28;20045;-68
2021/08/24 05:49:46;;;;;;;17.58;10.98;;;;;;;13.21;100.00;102753.31;10454927;28;20076;-69
2021/08/24 05:54:50;;;;;;;15.73;11.93;;;;;;;13.24;100.00;102753.22;10462157;28;20076;-69
2021/08/24 05:59:54;;;;;;;18.65;10.48;;;;;;;13.59;100.00;102755.47;10462230;28;20045;-69
2021/08/24 06:04:56;;;;;;;18.88;12.65;;;;;;;13.78;100.00;102755.59;10461946;28;20420;-68
2021/08/24 06:09:59;;;;;;;13.95;10.07;;;;;;;14.17;100.00;102754.88;10461642;28;20389;-68
2021/08/24 06:15:02;;;;;;;16.60;10.07;;;;;;;14.25;100.00;102758.91;10461791;28;20049;-70
2021/08/24 06:20:05;;;;;;;13.70;10.80;;;;;;;14.41;100.00;102764.41;10461331;28;20123;-68
2021/08/24 06:25:08;;;;;;;12.60;9.48;;;;;;;14.58;100.00;102763.69;10461250;28;20501;-70
2021/08/24 06:30:11;;;;;;;18.90;9.82;;;;;;;14.47;100.00;102764.16;10461197;28;20139;-68
2021/08/24 06:35:14;;;;;;;14.35;9.00;;;;;;;14.68;100.00;102762.38;10461157;28;20052;-68
2021/08/24 06:40:17;;;;;;;16.50;8.63;;;;;;;15.04;100.00;102758.19;10460895;28;20052;-68
2021/08/24 06:45:28;;;;;;;16.27;8.75;;;;;;;15.16;100.00;102756.78;10459958;28;20191;-68
2021/08/24 06:50:31;;;;;;;14.57;9.52;;;;;;;15.33;100.00;102762.16;10460155;28;20405;-68
2021/08/24 06:55:34;;;;;;;15.43;9.00;;;;;;;15.40;100.00;102762.72;10460003;28;20056;-68
2021/08/24 07:00:43;;;;;;;19.80;9.05;;;;;;;15.73;100.00;102769.94;10459987;28;20049;-68
2021/08/24 07:05:49;;;;;;;16.45;9.60;;;;;;;15.81;100.00;102767.00;10458741;28;20049;-69
2021/08/24 07:10:51;;;;;;;12.40;7.00;;;;;;;16.21;100.00;102771.16;10459777;28;20063;-68
2021/08/24 07:15:56;;;;;;;13.23;8.98;;;;;;;15.58;100.00;102768.91;10459583;28;20128;-68
2021/08/24 07:20:58;;;;;;;13.02;6.93;;;;;;;16.50;100.00;102766.19;10459238;28;20061;-67
2021/08/24 07:26:01;;;;;;;11.07;7.13;;;;;;;16.72;100.00;102765.94;10458943;28;20056;-68
2021/08/24 07:31:03;;;;;;;11.23;7.60;;;;;;;16.73;100.00;102765.00;10458750;28;20051;-68
2021/08/24 07:36:06;;;;;;;11.82;7.78;;;;;;;16.59;100.00;102770.16;10458457;28;20424;-67
2021/08/24 07:41:08;;;;;;;9.63;7.90;;;;;;;16.98;100.00;102766.38;10458669;28;20045;-66
2021/08/24 07:46:10;;;;;;;11.27;6.65;;;;;;;18.41;97.93;102776.06;10458164;28;20053;-68
2021/08/24 07:51:13;;;;;;;7.35;6.65;;;;;;;18.88;95.28;102775.03;10458133;28;20412;-67
2021/08/24 07:56:15;;;;;;;7.10;6.47;;;;;;;18.71;98.99;102774.25;10456799;28;20053;-67
2021/08/24 08:01:18;;;;;;;10.27;7.00;;;;;;;18.78;97.09;102773.84;10457414;28;20045;-68
2021/08/24 08:06:21;;;;;;;8.00;6.40;;;;;;;19.14;94.82;102768.09;10457524;28;20049;-68
2021/08/24 08:11:25;;;;;;;11.38;7.03;;;;;;;18.78;94.19;102774.72;10457396;28;20056;-68
2021/08/24 08:16:27;;;;;;;11.55;6.15;;;;;;;19.39;91.92;102782.50;10455855;28;20049;-67
2021/08/24 08:21:30;;;;;;;12.98;6.63;;;;;;;18.08;91.67;102788.56;10456843;28;20099;-69
2021/08/24 08:26:33;;;;;;;9.60;5.57;;;;;;;19.61;90.11;102784.63;10455439;28;20499;-67
2021/08/24 08:31:38;;;;;;;7.75;5.53;;;;;;;19.93;91.12;102774.59;10457135;28;20045;-68
2021/08/24 08:36:41;;;;;;;8.93;6.22;;;;;;;19.41;90.34;102783.25;10455485;28;20052;-67
2021/08/24 08:41:59;;;;;;;8.27;6.68;;;;;;;18.94;91.84;102780.81;10456327;28;20076;-67
2021/08/24 08:47:07;;;;;;;9.50;4.90;;;;;;;20.04;87.34;102784.53;10456483;28;20056;-67
2021/08/24 08:52:21;;;;;;;9.30;5.53;;;;;;;19.47;92.57;102781.06;10456471;28;20045;-67
2021/08/24 08:57:37;;;;;;;6.50;5.00;;;;;;;20.47;85.14;102778.94;10456388;28;20056;-68
2021/08/24 09:02:50;;;;;;;13.13;5.88;;;;;;;20.07;85.29;102780.78;10456461;28;20045;-68
2021/08/24 09:07:56;;;;;;;8.57;4.85;;;;;;;20.97;80.92;102779.09;10454521;28;20095;-67
2021/08/24 09:13:24;;;;;;;7.28;5.60;;;;;;;21.66;78.89;102781.31;10456022;28;20060;-68
2021/08/24 09:18:49;;;;;;;6.55;5.65;;;;;;;21.92;77.91;102776.69;10455755;28;20105;-67
2021/08/24 09:23:53;;;;;;;6.55;4.65;;;;;;;21.30;78.33;102785.63;10455930;28;20048;-68
2021/08/24 09:28:57;;;;;;;7.57;5.32;;;;;;;20.40;81.05;102778.50;10462654;28;20049;-68
2021/08/24 09:33:59;;;;;;;9.10;5.30;;;;;;;20.28;81.91;102770.53;10463862;28;20398;-68
2021/08/24 09:39:01;;;;;;;7.43;5.65;;;;;;;21.18;79.64;102791.84;10462785;28;20132;-67
2021/08/24 09:44:23;;;;;;;6.80;5.18;;;;;;;21.57;76.86;102782.84;10463638;28;20045;-67
2021/08/24 09:49:29;;;;;;;7.90;4.78;;;;;;;22.58;76.40;102776.22;10462856;28;20045;-67
2021/08/24 09:55:04;;;;;;;8.40;4.25;;;;;;;22.17;73.95;102780.19;10462722;28;20045;-68
2021/08/24 10:00:16;;;;;;;6.20;4.63;;;;;;;21.89;78.14;102768.94;10450215;28;20401;-69
2021/08/24 10:05:21;;;;;;;6.95;4.63;;;;;;;22.08;68.91;102771.09;10462534;28;20053;-67
2021/08/24 10:10:23;;;;;;;7.35;4.93;;;;;;;23.91;67.95;102756.66;10461746;28;20055;-68
2021/08/24 10:15:35;;;;;;;4.80;3.92;;;;;;;23.25;71.47;102750.50;10461634;28;20049;-67
2021/08/24 10:20:54;;;;;;;5.95;4.20;;;;;;;23.77;68.91;102753.38;10461526;28;20115;-67
2021/08/24 10:26:01;;;;;;;5.03;4.50;;;;;;;23.44;63.19;102748.03;10460439;28;20045;-67
2021/08/24 10:31:36;;;;;;;9.80;4.53;;;;;;;22.42;67.20;102755.19;10461075;28;20045;-68
2021/08/24 10:36:47;;;;;;;4.22;3.78;;;;;;;23.52;63.97;102750.94;10460092;28;20049;-69
2021/08/24 10:42:07;;;;;;;6.25;3.67;;;;;;;23.60;59.12;102734.25;10460557;28;20045;-67
2021/08/24 10:47:39;;;;;;;4.28;3.88;;;;;;;24.92;59.37;102732.03;10460348;28;20049;-69
2021/08/24 10:52:47;;;;;;;6.85;3.22;;;;;;;25.03;58.44;102739.94;10450918;28;20060;-68
2021/08/24 10:58:26;;;;;;;4.15;3.30;;;;;;;24.64;51.52;102739.81;10459008;28;20072;-67
2021/08/24 11:04:06;;;;;;;8.73;2.80;;;;;;;26.48;50.11;102738.31;10448626;28;20052;-68
2021/08/24 11:09:35;;;;;;;3.25;2.60;;;;;;;26.22;50.32;102738.09;10460432;28;20056;-65
2021/08/24 11:14:46;;;;;;;2.22;2.00;;;;;;;26.18;53.97;102735.88;10458305;28;20053;-66
2021/08/24 11:20:00;;;;;;;3.17;2.88;;;;;;;26.23;48.99;102720.16;10459654;28;20060;-65
2021/08/24 11:25:25;;;;;;;3.10;2.10;;;;;;;24.97;49.32;102721.75;10458538;28;20057;-65
2021/08/24 11:30:47;;;;;;;3.47;2.35;;;;;;;25.45;46.04;102718.34;10459106;28;20482;-66
2021/08/24 11:35:57;;;;;;;4.43;2.42;;;;;;;26.19;46.32;102714.22;10457941;28;20102;-66
2021/08/24 11:41:05;;;;;;;2.85;2.42;;;;;;;27.05;46.93;102703.28;10457511;28;20052;-66
2021/08/24 11:46:24;;;;;;;2.90;2.47;;;;;;;26.98;42.67;102712.09;10458301;28;20045;-67
2021/08/24 11:51:30;;;;;;;2.22;1.85;;;;;;;27.22;45.67;102692.72;10457931;28;20481;-66
2021/08/24 11:56:32;;;;;;;2.65;2.30;;;;;;;27.17;45.64;102685.09;10456839;28;20045;-66
2021/08/24 12:01:35;;;;;;;3.03;1.75;;;;;;;27.82;50.73;102678.63;10457907;28;20053;-65
2021/08/24 12:06:42;;;;;;;6.03;2.58;;;;;;;25.94;47.07;102680.75;10457423;28;20512;-66
2021/08/24 12:11:51;;;;;;;3.42;2.10;;;;;;;25.68;42.74;102670.63;10456676;28;20053;-64
2021/08/24 12:16:56;;;;;;;4.43;2.35;;;;;;;26.61;50.77;102670.84;10456896;28;20045;-65
2021/08/24 12:22:21;;;;;;;2.45;2.13;;;;;;;26.21;45.95;102665.75;10457870;28;20057;-66
2021/08/24 12:27:29;;;;;;;3.22;2.20;;;;;;;26.27;41.84;102667.88;10456876;28;20501;-66
2021/08/24 12:32:34;;;;;;;2.85;2.20;;;;;;;25.46;44.10;102670.94;10456631;28;20409;-65
2021/08/24 12:37:40;;;;;;;5.63;2.55;;;;;;;25.48;47.01;102667.13;10456702;28;20071;-65
2021/08/24 12:43:02;;;;;;;3.03;2.22;;;;;;;25.04;51.63;102675.50;10456487;28;20489;-66
2021/08/24 12:48:22;;;;;;;3.80;2.45;;;;;;;24.52;44.50;102672.09;10456248;28;20067;-66
2021/08/24 12:53:31;;;;;;;3.78;2.45;;;;;;;26.45;47.40;102666.09;10455521;28;20045;-66
2021/08/24 12:58:48;;;;;;;3.28;2.15;;;;;;;27.00;50.77;102664.41;10456353;28;20045;-65
2021/08/24 13:04:05;;;;;;;5.00;2.03;;;;;;;26.16;43.78;102659.97;10463781;28;20056;-65
2021/08/24 13:09:23;;;;;;;2.38;2.15;;;;;;;28.29;41.72;102643.28;10464428;28;20055;-65
2021/08/24 13:14:56;;;;;;;2.05;1.85;;;;;;;26.78;41.23;102645.06;10464570;28;20056;-65
2021/08/24 13:20:01;;;;;;;3.50;2.35;;;;;;;27.40;45.43;102639.81;10459195;28;20405;-67
2021/08/24 13:25:05;;;;;;;3.08;2.60;;;;;;;26.27;45.39;102649.06;10462469;28;20405;-65
2021/08/24 13:30:09;;;;;;;6.82;2.63;;;;;;;26.67;44.38;102645.25;10462220;28;20068;-66
2021/08/24 13:35:19;;;;;;;3.00;2.03;;;;;;;27.27;42.29;102652.78;10462630;28;20048;-66
2021/08/24 13:40:29;;;;;;;3.63;2.10;;;;;;;26.10;43.85;102642.63;10463404;28;20056;-66
2021/08/24 13:45:34;;;;;;;2.60;1.95;;;;;;;26.06;45.26;102635.88;10462905;28;20540;-66
2021/08/24 13:50:41;;;;;;;3.17;2.50;;;;;;;26.23;43.39;102634.25;10461735;28;20131;-65
2021/08/24 13:55:51;;;;;;;2.55;1.83;;;;;;;25.71;42.20;102635.50;10462617;28;20044;-65
2021/08/24 14:01:19;;;;;;;2.45;2.25;;;;;;;26.22;42.00;102627.19;10462534;28;20056;-66
2021/08/24 14:06:28;;;;;;;7.22;3.25;;;;;;;25.74;40.30;102631.69;10460878;28;20508;-65
2021/08/24 14:11:32;;;;;;;3.17;2.40;;;;;;;25.43;39.83;102625.63;10461166;28;20412;-66
2021/08/24 14:16:37;;;;;;;3.90;2.22;;;;;;;26.26;43.56;102628.56;10461612;28;20045;-66
2021/08/24 14:21:41;;;;;;;3.17;2.10;;;;;;;26.68;41.05;102620.09;10461675;28;20053;-65
2021/08/24 14:26:47;;;;;;;5.50;1.98;;;;;;;24.75;41.31;102613.00;10461302;28;20052;-65
2021/08/24 14:31:52;;;;;;;5.60;2.20;;;;;;;26.44;42.50;102615.22;10461121;28;20045;-64
2021/08/24 14:37:00;;;;;;;5.35;2.47;;;;;;;26.14;40.20;102620.72;10461096;28;20045;-65
2021/08/24 14:42:05;;;;;;;2.25;2.05;;;;;;;27.24;39.28;102604.69;10461355;28;20053;-66
2021/08/24 14:47:31;;;;;;;2.80;2.08;;;;;;;28.75;39.36;102607.97;10459140;28;20048;-66
2021/08/24 14:52:41;;;;;;;2.70;2.28;;;;;;;29.22;39.77;102617.34;10456963;28;20060;-68
2021/08/24 14:57:49;;;;;;;2.17;1.98;;;;;;;26.48;40.47;102609.41;10459157;28;20059;-66
2021/08/24 15:02:57;;;;;;;2.55;2.33;;;;;;;24.45;41.33;102607.50;10460786;28;20052;-68
2021/08/24 15:08:23;;;;;;;3.55;2.22;;;;;;;26.99;39.11;102603.59;10459504;28;20404;-66
2021/08/24 15:13:28;;;;;;;2.00;1.83;;;;;;;27.34;41.05;102613.53;10459730;28;20053;-66
2021/08/24 15:18:48;;;;;;;2.25;2.03;;;;;;;26.39;39.25;102604.91;10459261;28;20045;-67
2021/08/24 15:24:18;;;;;;;4.27;2.27;;;;;;;26.57;42.16;102591.53;10458178;28;20056;-66
2021/08/24 15:29:34;;;;;;;4.40;2.53;;;;;;;25.60;38.32;102603.44;10455666;28;20045;-67
2021/08/24 15:34:41;;;;;;;4.13;2.13;;;;;;;24.69;40.15;102595.63;10458999;28;20050;-66
2021/08/24 15:39:44;;;;;;;2.20;2.00;;;;;;;24.92;40.79;102598.09;10458476;28;20370;-66
2021/08/24 15:44:47;;;;;;;2.78;2.15;;;;;;;23.97;44.80;102594.75;10458355;28;20041;-66
2021/08/24 15:49:50;;;;;;;5.38;2.15;;;;;;;23.58;44.93;102593.66;10458039;28;20045;-65
2021/08/24 15:54:52;;;;;;;1.90;1.65;;;;;;;24.04;44.65;102593.28;10458234;28;20049;-67
2021/08/24 15:59:54;;;;;;;2.60;2.17;;;;;;;22.78;47.73;102596.63;10457390;28;20041;-65
2021/08/24 16:04:57;;;;;;;4.15;2.10;;;;;;;22.77;47.03;102584.22;10457855;28;20048;-64
2021/08/24 16:09:59;;;;;;;4.07;2.55;;;;;;;22.23;46.93;102579.66;10457771;28;20045;-68
2021/08/24 16:15:02;;;;;;;2.70;2.20;;;;;;;22.04;46.52;102586.44;10457334;28;20056;-66
2021/08/24 16:20:06;;;;;;;3.92;2.30;;;;;;;22.44;50.47;102585.13;10456149;28;20053;-68
2021/08/24 16:25:20;;;;;;;4.70;2.22;;;;;;;22.42;51.36;102574.56;10457310;28;20045;-66
2021/08/24 16:30:26;;;;;;;3.70;2.40;;;;;;;22.37;49.39;102573.25;10456699;28;20041;-66
2021/08/24 16:35:40;;;;;;;3.00;2.08;;;;;;;21.74;46.39;102578.13;10454935;28;20041;-66
2021/08/24 16:40:45;;;;;;;3.40;2.15;;;;;;;21.87;50.76;102579.75;10455877;28;20060;-67
2021/08/24 16:45:48;;;;;;;13.15;3.22;;;;;;;21.74;51.31;102576.34;10456722;28;20041;-66
2021/08/24 16:50:51;;;;;;;6.97;2.70;;;;;;;21.64;50.69;102589.50;10456182;28;20448;-66
2021/08/24 16:55:54;;;;;;;2.55;2.13;;;;;;;21.36;50.23;102584.56;10456425;28;20049;-67
2021/08/24 17:00:56;;;;;;;4.95;2.38;;;;;;;21.43;53.64;102588.44;10454608;28;20053;-67
2021/08/24 17:05:59;;;;;;;4.10;2.10;;;;;;;21.18;55.36;102592.94;10455915;28;20493;-65
2021/08/24 17:11:01;;;;;;;3.85;2.15;;;;;;;21.09;54.60;102585.63;10455880;28;20057;-67
2021/08/24 17:16:04;;;;;;;2.90;2.38;;;;;;;20.81;53.33;102584.16;10456896;28;20099;-66
2021/08/24 17:21:07;;;;;;;3.85;2.28;;;;;;;20.88;58.71;102586.25;10455703;28;20069;-66
2021/08/24 17:26:09;;;;;;;3.05;2.22;;;;;;;20.62;57.69;102580.13;10456215;28;20125;-66
2021/08/24 17:31:18;;;;;;;2.63;2.25;;;;;;;20.54;61.00;102583.34;10455470;28;20057;-66
2021/08/24 17:36:22;;;;;;;3.42;2.25;;;;;;;20.38;62.88;102570.28;10455421;28;20122;-66
2021/08/24 17:41:27;;;;;;;4.95;2.75;;;;;;;20.12;67.52;102577.44;10455323;28;20049;-66
2021/08/24 17:46:29;;;;;;;3.70;2.40;;;;;;;19.59;68.21;102581.97;10457123;28;20056;-66
2021/08/24 17:51:32;;;;;;;2.92;2.30;;;;;;;19.09;73.20;102581.72;10462642;28;20496;-66
2021/08/24 17:56:34;;;;;;;3.35;2.67;;;;;;;18.99;73.11;102591.22;10462747;28;20049;-68
2021/08/24 18:01:37;;;;;;;3.15;2.78;;;;;;;18.36;78.17;102588.94;10462693;28;20053;-66
2021/08/24 18:06:43;;;;;;;10.15;3.28;;;;;;;18.39;82.25;102579.91;10462240;28;20079;-66
2021/08/24 18:11:57;;;;;;;7.25;2.10;;;;;;;18.01;80.11;102589.28;10462086;28;20382;-66
2021/08/24 18:16:59;;;;;;;7.13;3.92;;;;;;;17.74;85.35;102602.38;10460495;28;20049;-67
2021/08/24 18:22:03;;;;;;;5.05;2.53;;;;;;;17.71;87.20;102607.00;10461354;28;20071;-67
2021/08/24 18:27:05;;;;;;;6.57;2.92;;;;;;;17.43;88.20;102609.47;10461461;28;20057;-68
2021/08/24 18:32:08;;;;;;;2.42;2.10;;;;;;;17.05;90.37;102615.13;10461398;28;20045;-67
2021/08/24 18:37:10;;;;;;;3.00;2.45;;;;;;;16.99;88.84;102626.06;10461040;28;20041;-67
2021/08/24 18:42:13;;;;;;;4.85;2.50;;;;;;;16.83;89.96;102619.91;10460059;28;20048;-67
2021/08/24 18:47:15;;;;;;;3.88;2.70;;;;;;;16.63;89.84;102615.69;10460491;28;20512;-66
2021/08/24 18:52:17;;;;;;;3.08;2.78;;;;;;;16.57;87.45;102614.22;10460916;28;20048;-68
2021/08/24 18:57:20;;;;;;;5.00;2.90;;;;;;;16.19;89.84;102618.88;10459423;28;20052;-66
2021/08/24 19:02:22;;;;;;;3.28;2.50;;;;;;;16.18;90.67;102617.19;10460546;28;20107;-66
2021/08/24 19:07:25;;;;;;;2.92;2.17;;;;;;;15.85;92.32;102624.13;10459582;28;20503;-67
2021/08/24 19:12:27;;;;;;;2.58;2.22;;;;;;;15.81;93.53;102619.09;10460721;28;20051;-67
2021/08/24 19:17:31;;;;;;;3.72;2.45;;;;;;;15.68;92.21;102622.28;10459841;28;20413;-68
2021/08/24 19:22:33;;;;;;;2.97;2.10;;;;;;;15.60;95.47;102635.03;10458952;28;20056;-65
2021/08/24 19:27:36;;;;;;;3.10;2.22;;;;;;;15.50;95.14;102633.78;10459568;28;20049;-66
2021/08/24 19:32:38;;;;;;;6.72;2.42;;;;;;;15.34;96.06;102633.69;10458838;28;20485;-66
2021/08/24 19:37:40;;;;;;;3.38;2.17;;;;;;;15.28;96.37;102633.97;10459012;28;20048;-67
2021/08/24 19:42:43;;;;;;;2.72;2.13;;;;;;;15.08;98.52;102634.91;10458336;28;20493;-67
2021/08/24 19:47:45;;;;;;;5.65;1.98;;;;;;;15.11;98.00;102632.97;10458166;28;20041;-66
2021/08/24 19:52:48;;;;;;;2.38;2.03;;;;;;;14.82;99.17;102626.44;10458349;28;20049;-66
2021/08/24 19:57:51;;;;;;;7.05;2.92;;;;;;;14.90;99.92;102621.66;10457715;28;20055;-65
2021/08/24 20:02:54;;;;;;;4.80;2.83;;;;;;;14.84;99.54;102625.47;10457575;28;20374;-66
2021/08/24 20:07:57;;;;;;;9.38;2.80;;;;;;;14.65;100.00;102630.69;10457392;28;20075;-67
2021/08/24 20:12:59;;;;;;;5.90;2.72;;;;;;;14.58;100.00;102628.41;10456499;28;20116;-66
2021/08/24 20:18:02;;;;;;;7.35;3.58;;;;;;;14.80;98.71;102623.03;10457201;28;20056;-66
2021/08/24 20:23:08;;;;;;;4.07;3.20;;;;;;;14.47;100.00;102626.22;10456828;28;20064;-67
2021/08/24 20:28:13;;;;;;;6.68;3.70;;;;;;;14.31;100.00;102613.75;10456900;28;20048;-67
2021/08/24 20:33:17;;;;;;;4.63;2.45;;;;;;;14.33;100.00;102608.41;10456637;28;20071;-66
2021/08/24 20:38:23;;;;;;;5.70;2.58;;;;;;;14.27;100.00;102608.66;10456783;28;20124;-67
2021/08/24 20:43:30;;;;;;;6.72;2.97;;;;;;;14.36;100.00;102610.06;10456598;28;20048;-69
2021/08/24 20:48:33;;;;;;;11.23;2.63;;;;;;;14.06;100.00;102608.69;10456751;28;20049;-68
2021/08/24 20:53:37;;;;;;;4.65;2.90;;;;;;;14.08;100.00;102619.16;10456674;28;20056;-66
2021/08/24 20:58:39;;;;;;;5.82;3.08;;;;;;;14.01;100.00;102623.00;10456403;28;20052;-68
2021/08/24 21:03:41;;;;;;;3.25;2.92;;;;;;;13.97;100.00;102621.38;10456566;28;20049;-66
2021/08/24 21:08:44;;;;;;;6.30;2.55;;;;;;;14.15;100.00;102614.47;10455836;28;20404;-66
2021/08/24 21:13:46;;;;;;;4.13;2.45;;;;;;;13.96;100.00;102614.44;10456827;28;20045;-66
2021/08/24 21:18:49;;;;;;;9.23;2.80;;;;;;;13.75;100.00;102617.03;10455759;28;20053;-67
2021/08/24 21:23:52;;;;;;;4.10;2.50;;;;;;;13.85;100.00;102614.88;10462175;28;20060;-66
2021/08/24 21:28:54;;;;;;;5.55;2.53;;;;;;;13.67;100.00;102612.09;10463664;28;20064;-66
2021/08/24 21:33:57;;;;;;;3.53;2.53;;;;;;;13.57;100.00;102622.16;10462484;28;20055;-66
2021/08/24 21:38:59;;;;;;;4.40;2.65;;;;;;;13.52;100.00;102624.09;10463034;28;20045;-68
2021/08/24 21:44:04;;;;;;;4.13;2.20;;;;;;;13.45;100.00;102627.91;10463263;28;20055;-67
2021/08/24 21:49:06;;;;;;;2.75;2.30;;;;;;;13.45;100.00;102627.91;10463596;28;20045;-66
2021/08/24 21:54:11;;;;;;;4.82;2.80;;;;;;;13.45;100.00;102622.66;10462857;28;20059;-66
2021/08/24 21:59:14;;;;;;;2.60;2.05;;;;;;;13.49;100.00;102624.22;10463350;28;20041;-67
2021/08/24 22:04:17;;;;;;;3.47;2.40;;;;;;;13.35;100.00;102623.94;10462413;28;20071;-66
2021/08/24 22:09:19;;;;;;;3.67;2.33;;;;;;;13.25;100.00;102622.56;10462198;28;20409;-66
2021/08/24 22:14:21;;;;;;;4.00;2.80;;;;;;;13.30;100.00;102628.50;10462095;28;20068;-67
2021/08/24 22:19:24;;;;;;;5.05;2.10;;;;;;;13.23;100.00;102621.75;10461598;28;20045;-67
2021/08/24 22:24:30;;;;;;;3.55;1.90;;;;;;;13.22;100.00;102620.91;10462242;28;20050;-65
2021/08/24 22:29:33;;;;;;;7.50;3.20;;;;;;;13.00;100.00;102616.47;10461412;28;20083;-65
2021/08/24 22:34:36;;;;;;;3.38;1.98;;;;;;;13.13;100.00;102621.25;10460814;28;20067;-67
2021/08/24 22:39:38;;;;;;;6.45;2.55;;;;;;;13.05;100.00;102628.59;10460960;28;20391;-68
2021/08/24 22:44:40;;;;;;;3.67;2.40;;;;;;;13.05;100.00;102631.25;10460811;28;20057;-69
2021/08/24 22:49:43;;;;;;;3.40;2.45;;;;;;;12.96;100.00;102625.41;10459962;28;20512;-66
2021/08/24 22:54:45;;;;;;;3.88;2.65;;;;;;;12.91;100.00;102630.00;10460486;28;20056;-67
2021/08/24 22:59:50;;;;;;;3.85;2.33;;;;;;;12.78;100.00;102618.22;10460093;28;20405;-66
2021/08/24 23:04:53;;;;;;;2.85;2.13;;;;;;;12.80;100.00;102609.34;10460055;28;20057;-67
2021/08/24 23:09:55;;;;;;;4.03;2.63;;;;;;;12.74;100.00;102608.72;10459998;28;20055;-67
2021/08/24 23:14:58;;;;;;;4.78;2.65;;;;;;;12.79;100.00;102612.03;10460018;28;20049;-66
2021/08/24 23:20:01;;;;;;;2.30;2.10;;;;;;;12.72;100.00;102610.56;10459194;28;20045;-67